createdAt,value
2022-09-25T00:00:57.919Z,42.78
2022-09-25T00:03:27.522Z,43.53
2022-09-25T00:06:01.738Z,43.33
2022-09-25T00:08:28.852Z,44.03
2022-09-25T00:10:56.067Z,41.30
2022-09-25T00:13:23.371Z,41.65
2022-09-25T00:15:55.957Z,42.33
2022-09-25T00:18:42.603Z,42.15
2022-09-25T00:21:12.930Z,41.10
2022-09-25T00:23:41.410Z,37.47
2022-09-25T00:26:09.160Z,40.58
2022-09-25T00:28:36.739Z,39.05
2022-09-25T00:31:05.509Z,41.53
2022-09-25T00:33:36.331Z,36.28
2022-09-25T00:36:05.391Z,38.83
2022-09-25T00:38:33.805Z,35.20
2022-09-25T00:41:01.671Z,36.95
2022-09-25T00:43:46.539Z,36.38
2022-09-25T00:46:40.552Z,35.30
2022-09-25T00:49:12.800Z,35.55
2022-09-25T00:51:56.962Z,36.10
2022-09-25T00:54:31.584Z,35.80
2022-09-25T00:57:01.565Z,34.92
2022-09-25T00:59:39.315Z,36.03
2022-09-25T01:02:08.087Z,35.10
2022-09-25T01:04:38.252Z,35.00
2022-09-25T01:07:05.195Z,38.63
2022-09-25T01:09:32.249Z,36.63
2022-09-25T01:11:59.135Z,36.20
2022-09-25T01:14:26.954Z,35.78
2022-09-25T01:17:02.160Z,36.88
2022-09-25T01:20:04.051Z,36.22
2022-09-25T01:22:39.561Z,36.95
2022-09-25T01:25:24.347Z,35.33
2022-09-25T01:28:29.523Z,36.53
2022-09-25T01:31:04.276Z,37.47
2022-09-25T01:33:58.753Z,37.63
2022-09-25T01:36:58.014Z,36.70
2022-09-25T01:39:36.616Z,36.75
2022-09-25T01:42:28.018Z,37.88
2022-09-25T01:45:02.462Z,37.20
2022-09-25T01:47:30.937Z,37.28
2022-09-25T01:50:10.410Z,35.38
2022-09-25T01:52:44.453Z,37.50
2022-09-25T01:55:25.288Z,36.50
2022-09-25T01:57:58.869Z,36.13
2022-09-25T02:00:27.251Z,37.22
2022-09-25T02:03:06.472Z,36.53
2022-09-25T02:05:47.035Z,36.17
2022-09-25T02:08:25.058Z,38.60
2022-09-25T02:10:56.058Z,37.83
2022-09-25T02:13:25.909Z,36.92
2022-09-25T02:15:56.850Z,37.13
2022-09-25T02:18:42.825Z,37.72
2022-09-25T02:21:40.388Z,37.72
2022-09-25T02:24:14.425Z,38.35
2022-09-25T02:26:41.296Z,37.00
2022-09-25T02:29:09.012Z,37.85
2022-09-25T02:31:53.690Z,39.05
2022-09-25T02:34:21.626Z,38.75
2022-09-25T02:36:48.770Z,39.00
2022-09-25T02:39:18.829Z,38.63
2022-09-25T02:42:19.337Z,40.13
2022-09-25T02:45:07.042Z,39.53
2022-09-25T02:48:00.916Z,39.72
2022-09-25T02:50:38.558Z,38.88
2022-09-25T02:53:36.941Z,38.17
2022-09-25T02:56:08.998Z,34.70
2022-09-25T02:59:03.397Z,36.28
2022-09-25T03:01:32.460Z,33.45
2022-09-25T03:04:00.607Z,33.40
2022-09-25T03:06:28.219Z,32.55
2022-09-25T03:08:56.890Z,33.50
2022-09-25T03:11:27.027Z,31.98
2022-09-25T03:14:01.700Z,32.25
2022-09-25T03:16:50.380Z,29.02
2022-09-25T03:19:19.814Z,32.25
2022-09-25T03:21:47.442Z,30.88
2022-09-25T03:24:15.378Z,32.65
2022-09-25T03:26:43.116Z,31.25
2022-09-25T03:29:12.817Z,29.83
2022-09-25T03:31:40.571Z,30.35
2022-09-25T03:34:07.371Z,32.38
2022-09-25T03:36:35.019Z,30.23
2022-09-25T03:39:02.193Z,31.23
2022-09-25T03:41:31.301Z,29.88
2022-09-25T03:43:58.501Z,32.13
2022-09-25T03:46:34.243Z,32.50
2022-09-25T03:49:02.202Z,28.73
2022-09-25T03:51:30.952Z,28.50
2022-09-25T03:53:58.347Z,29.55
2022-09-25T03:56:27.398Z,28.88
2022-09-25T03:58:55.828Z,27.30
2022-09-25T04:01:23.737Z,25.70
2022-09-25T04:03:51.338Z,25.05
2022-09-25T04:06:20.752Z,23.10
2022-09-25T04:08:48.479Z,21.73
2022-09-25T04:11:16.791Z,19.67
2022-09-25T04:13:47.114Z,19.27
2022-09-25T04:16:16.228Z,16.38
2022-09-25T04:18:43.790Z,15.43
2022-09-25T04:21:13.583Z,16.88
2022-09-25T04:23:40.867Z,14.68
2022-09-25T04:26:08.414Z,14.32
2022-09-25T04:28:35.936Z,13.75
2022-09-25T04:31:03.919Z,12.55
2022-09-25T04:33:46.454Z,12.27
2022-09-25T04:36:14.516Z,9.20
2022-09-25T04:38:41.818Z,10.95
2022-09-25T04:41:08.616Z,11.20
2022-09-25T04:43:35.869Z,11.32
2022-09-25T04:46:07.496Z,11.63
2022-09-25T04:48:35.966Z,8.70
2022-09-25T04:51:03.672Z,10.00
2022-09-25T04:53:31.592Z,10.13
2022-09-25T04:56:03.465Z,10.13
2022-09-25T04:58:30.394Z,10.40
2022-09-25T05:01:05.411Z,10.88
2022-09-25T05:03:32.628Z,10.07
2022-09-25T05:05:59.919Z,10.45
2022-09-25T05:08:27.802Z,9.07
2022-09-25T05:10:54.786Z,9.40
2022-09-25T05:13:21.757Z,9.63
2022-09-25T05:15:48.789Z,10.18
2022-09-25T05:18:19.907Z,10.45
2022-09-25T05:20:46.942Z,9.55
2022-09-25T05:23:13.928Z,8.70
2022-09-25T05:25:43.820Z,10.48
2022-09-25T05:28:11.383Z,10.23
2022-09-25T05:30:39.172Z,8.02
2022-09-25T05:33:06.395Z,9.90
2022-09-25T05:35:36.755Z,9.80
2022-09-25T05:38:03.709Z,8.63
2022-09-25T05:40:31.751Z,8.57
2022-09-25T05:42:59.841Z,8.88
2022-09-25T05:45:26.727Z,7.65
2022-09-25T05:48:06.875Z,8.50
2022-09-25T05:50:33.903Z,8.70
2022-09-25T05:53:03.110Z,9.57
2022-09-25T05:55:30.938Z,8.98
2022-09-25T05:58:05.044Z,10.07
2022-09-25T06:00:33.080Z,8.20
2022-09-25T06:03:01.420Z,7.63
2022-09-25T06:05:28.444Z,7.88
2022-09-25T06:07:55.949Z,6.75
2022-09-25T06:10:26.153Z,7.95
2022-09-25T06:12:58.843Z,7.82
2022-09-25T06:15:30.128Z,7.95
2022-09-25T06:17:57.057Z,6.78
2022-09-25T06:20:25.083Z,7.82
2022-09-25T06:22:55.905Z,7.88
2022-09-25T06:25:29.313Z,7.57
2022-09-25T06:27:59.953Z,7.20
2022-09-25T06:30:31.056Z,6.18
2022-09-25T06:32:58.527Z,6.60
2022-09-25T06:35:25.956Z,6.93
2022-09-25T06:37:53.384Z,6.82
2022-09-25T06:40:20.552Z,7.32
2022-09-25T06:42:47.375Z,5.95
2022-09-25T06:45:17.339Z,6.50
2022-09-25T06:47:44.232Z,6.43
2022-09-25T06:50:12.134Z,5.65
2022-09-25T06:52:45.821Z,5.13
2022-09-25T06:55:13.579Z,5.97
2022-09-25T06:57:43.325Z,5.35
2022-09-25T07:00:11.032Z,7.22
2022-09-25T07:02:58.769Z,4.63
2022-09-25T07:05:25.795Z,4.45
2022-09-25T07:07:52.743Z,4.25
2022-09-25T07:10:19.637Z,4.05
2022-09-25T07:12:46.913Z,4.50
2022-09-25T07:15:15.625Z,5.18
2022-09-25T07:17:43.636Z,3.70
2022-09-25T07:20:14.095Z,4.28
2022-09-25T07:22:41.925Z,3.45
2022-09-25T07:25:10.341Z,3.95
2022-09-25T07:27:37.501Z,4.40
2022-09-25T07:30:05.166Z,3.83
2022-09-25T07:32:32.063Z,4.25
2022-09-25T07:34:59.126Z,4.45
2022-09-25T07:37:25.961Z,4.68
2022-09-25T07:39:53.097Z,4.45
2022-09-25T07:42:19.941Z,3.70
2022-09-25T07:44:48.723Z,4.25
2022-09-25T07:47:17.055Z,3.63
2022-09-25T07:49:43.866Z,3.30
2022-09-25T07:52:11.294Z,4.32
2022-09-25T07:54:38.537Z,3.63
2022-09-25T07:57:05.771Z,3.63
2022-09-25T07:59:32.613Z,4.07
2022-09-25T08:01:59.760Z,3.90
2022-09-25T08:04:27.145Z,3.28
2022-09-25T08:06:54.212Z,3.40
2022-09-25T08:09:23.382Z,4.20
2022-09-25T08:11:50.282Z,4.00
2022-09-25T08:14:19.615Z,3.58
2022-09-25T08:16:48.437Z,4.85
2022-09-25T08:19:18.375Z,3.78
2022-09-25T08:21:45.608Z,3.90
2022-09-25T08:24:14.695Z,4.53
2022-09-25T08:26:41.601Z,3.78
2022-09-25T08:29:09.648Z,4.10
2022-09-25T08:31:36.994Z,2.85
2022-09-25T08:34:28.045Z,3.90
2022-09-25T08:36:54.469Z,2.95
2022-09-25T08:39:21.333Z,4.03
2022-09-25T08:41:49.471Z,4.00
2022-09-25T08:44:37.305Z,3.97
2022-09-25T08:47:29.793Z,4.03
2022-09-25T08:50:21.021Z,4.38
2022-09-25T08:53:03.530Z,3.58
2022-09-25T08:55:58.783Z,3.10
2022-09-25T08:58:29.765Z,3.15
2022-09-25T09:01:02.345Z,2.97
2022-09-25T09:03:30.604Z,3.10
2022-09-25T09:06:03.092Z,4.10
2022-09-25T09:08:35.045Z,4.13
2022-09-25T09:11:21.277Z,3.83
2022-09-25T09:13:51.561Z,3.55
2022-09-25T09:16:49.615Z,3.33
2022-09-25T09:19:16.511Z,3.35
2022-09-25T09:22:13.150Z,3.00
2022-09-25T09:25:07.939Z,3.00
2022-09-25T09:27:40.910Z,3.17
2022-09-25T09:33:34.344Z,2.30
2022-09-25T09:36:45.435Z,2.38
2022-09-25T09:39:35.316Z,2.15
2022-09-25T09:42:07.888Z,2.80
2022-09-25T09:44:59.276Z,2.47
2022-09-25T09:47:39.472Z,3.15
2022-09-25T09:50:18.374Z,3.05
2022-09-25T09:52:47.100Z,2.35
2022-09-25T09:55:47.410Z,1.98
2022-09-25T09:58:25.419Z,2.72
2022-09-25T10:00:52.978Z,2.60
2022-09-25T10:03:24.391Z,2.30
2022-09-25T10:06:02.409Z,1.50
2022-09-25T10:08:29.718Z,2.13
2022-09-25T10:10:59.343Z,1.92
2022-09-25T10:13:36.833Z,1.58
2022-09-25T10:16:14.314Z,1.95
2022-09-25T10:18:52.575Z,1.75
2022-09-25T10:21:21.945Z,2.03
2022-09-25T10:23:52.736Z,2.25
2022-09-25T10:26:38.313Z,2.35
2022-09-25T10:29:26.189Z,2.20
2022-09-25T10:32:02.170Z,2.03
2022-09-25T10:34:30.145Z,2.30
2022-09-25T10:36:57.586Z,2.13
2022-09-25T10:39:44.695Z,1.90
2022-09-25T10:42:33.936Z,2.60
2022-09-25T10:45:00.869Z,1.80
2022-09-25T10:47:49.275Z,1.77
2022-09-25T10:50:20.997Z,2.28
2022-09-25T10:52:50.366Z,1.42
2022-09-25T10:55:35.104Z,2.35
2022-09-25T10:58:11.027Z,1.60
2022-09-25T11:00:51.830Z,1.73
2022-09-25T11:03:24.620Z,1.88
2022-09-25T11:06:00.263Z,1.83
2022-09-25T11:08:30.446Z,1.58
2022-09-25T11:10:58.717Z,1.90
2022-09-25T11:13:32.165Z,1.30
2022-09-25T11:16:00.893Z,3.03
2022-09-25T11:18:47.412Z,1.90
2022-09-25T11:21:22.232Z,1.67
2022-09-25T11:24:01.273Z,1.55
2022-09-25T11:26:37.775Z,1.40
2022-09-25T11:29:33.741Z,1.90
2022-09-25T11:32:29.793Z,2.05
2022-09-25T11:35:25.778Z,1.88
2022-09-25T11:38:42.524Z,1.98
2022-09-25T11:41:33.480Z,1.60
2022-09-25T11:44:13.499Z,1.35
2022-09-25T11:47:01.360Z,2.35
2022-09-25T11:49:51.431Z,1.50
2022-09-25T11:52:27.066Z,1.48
2022-09-25T11:55:24.666Z,1.48
2022-09-25T11:58:01.583Z,0.93
2022-09-25T12:00:35.134Z,1.35
2022-09-25T12:03:30.467Z,1.52
2022-09-25T12:06:00.352Z,1.23
2022-09-25T12:09:00.654Z,1.75
2022-09-25T12:12:08.712Z,1.33
2022-09-25T12:14:41.131Z,1.40
2022-09-25T12:17:41.923Z,2.13
2022-09-25T12:20:30.598Z,1.77
2022-09-25T12:23:35.823Z,1.52
2022-09-25T12:26:16.814Z,2.05
2022-09-25T12:29:04.383Z,1.70
2022-09-25T12:32:06.887Z,1.52
2022-09-25T12:35:11.176Z,1.52
2022-09-25T12:37:49.180Z,2.25
2022-09-25T12:40:39.241Z,1.27
2022-09-25T12:43:18.053Z,1.70
2022-09-25T12:46:26.344Z,1.80
2022-09-25T12:49:00.131Z,1.60
2022-09-25T12:51:34.215Z,1.77
2022-09-25T12:54:13.831Z,1.08
2022-09-25T12:57:00.949Z,1.30
2022-09-25T12:59:46.697Z,1.17
2022-09-25T13:02:31.910Z,4.32
2022-09-25T13:05:12.008Z,1.77
2022-09-25T13:07:56.407Z,2.08
2022-09-25T13:10:42.455Z,2.05
2022-09-25T13:13:27.460Z,1.83
2022-09-25T13:19:23.774Z,1.80
2022-09-25T13:21:50.729Z,2.00
2022-09-25T13:24:18.699Z,1.60
2022-09-25T13:26:56.373Z,1.02
2022-09-25T13:29:28.080Z,1.42
2022-09-25T13:32:19.704Z,1.20
2022-09-25T13:34:47.223Z,1.52
2022-09-25T13:37:15.882Z,1.25
2022-09-25T13:40:03.970Z,1.23
2022-09-25T13:42:37.954Z,1.40
2022-09-25T13:45:23.041Z,1.98
2022-09-25T13:48:04.448Z,1.52
2022-09-25T13:50:45.314Z,1.98
2022-09-25T13:53:20.857Z,1.73
2022-09-25T13:55:50.459Z,1.90
2022-09-25T13:58:34.361Z,1.42
2022-09-25T14:01:03.183Z,1.20
2022-09-25T14:03:44.770Z,1.23
2022-09-25T14:06:36.991Z,0.88
2022-09-25T14:09:28.502Z,1.13
2022-09-25T14:12:02.930Z,1.73
2022-09-25T14:14:55.777Z,0.90
2022-09-25T14:17:25.110Z,1.55
2022-09-25T14:19:54.181Z,1.25
2022-09-25T14:22:48.416Z,1.35
2022-09-25T14:25:34.189Z,1.33
2022-09-25T14:28:02.673Z,1.10
2022-09-25T14:30:31.010Z,1.00
2022-09-25T14:33:18.264Z,1.35
2022-09-25T14:35:51.467Z,1.48
2022-09-25T14:38:55.662Z,1.00
2022-09-25T14:41:44.107Z,1.40
2022-09-25T14:44:32.310Z,1.33
2022-09-25T14:46:59.165Z,1.00
2022-09-25T14:49:30.276Z,1.05
2022-09-25T14:52:01.382Z,1.05
2022-09-25T14:54:36.649Z,0.70
2022-09-25T14:57:06.096Z,0.95
2022-09-25T14:59:47.054Z,1.50
2022-09-25T15:02:37.895Z,1.00
2022-09-25T15:05:24.201Z,1.00
2022-09-25T15:07:51.324Z,0.98
2022-09-25T15:10:27.615Z,1.35
2022-09-25T15:12:55.506Z,1.23
2022-09-25T15:15:22.428Z,1.20
2022-09-25T15:17:53.435Z,1.20
2022-09-25T15:20:22.677Z,1.13
2022-09-25T15:22:58.930Z,0.95
2022-09-25T15:25:33.116Z,0.80
2022-09-25T15:28:00.275Z,1.17
2022-09-25T15:30:28.200Z,0.82
2022-09-25T15:32:59.961Z,0.75
2022-09-25T15:35:28.765Z,1.20
2022-09-25T15:38:11.638Z,1.48
2022-09-25T15:40:39.838Z,1.20
2022-09-25T15:43:14.087Z,0.93
2022-09-25T15:46:00.566Z,1.23
2022-09-25T15:48:35.660Z,1.20
2022-09-25T15:51:04.953Z,1.27
2022-09-25T15:53:36.237Z,1.00
2022-09-25T15:56:29.454Z,1.67
2022-09-25T15:58:58.551Z,1.20
2022-09-25T16:01:47.719Z,1.35
2022-09-25T16:04:41.523Z,1.50
2022-09-25T16:07:32.158Z,1.17
2022-09-25T16:10:02.959Z,1.25
2022-09-25T16:12:36.048Z,1.25
2022-09-25T16:15:30.253Z,0.93
2022-09-25T16:18:05.836Z,1.17
2022-09-25T16:20:34.946Z,1.20
2022-09-25T16:23:04.631Z,1.30
2022-09-25T16:25:33.926Z,1.52
2022-09-25T16:28:30.366Z,1.67
2022-09-25T16:31:03.810Z,1.45
2022-09-25T16:33:34.944Z,1.48
2022-09-25T16:36:14.584Z,1.45
2022-09-25T16:39:03.556Z,1.20
2022-09-25T16:41:30.844Z,1.70
2022-09-25T16:44:19.153Z,1.30
2022-09-25T16:47:07.685Z,1.70
2022-09-25T16:49:35.042Z,1.35
2022-09-25T16:52:05.728Z,1.10
2022-09-25T16:54:33.245Z,1.67
2022-09-25T16:57:04.115Z,1.60
2022-09-25T16:59:31.328Z,1.80
2022-09-25T17:02:03.069Z,1.77
2022-09-25T17:04:31.220Z,3.13
2022-09-25T17:06:58.597Z,5.93
2022-09-25T17:09:28.275Z,5.93
2022-09-25T17:12:08.584Z,4.60
2022-09-25T17:14:35.627Z,3.13
2022-09-25T17:17:02.521Z,2.72
2022-09-25T17:19:29.541Z,2.45
2022-09-25T17:21:57.096Z,3.63
2022-09-25T17:24:26.562Z,7.18
2022-09-25T17:26:53.733Z,9.95
2022-09-25T17:29:21.230Z,8.20
2022-09-25T17:31:48.067Z,7.18
2022-09-25T17:34:19.447Z,4.55
2022-09-25T17:36:46.481Z,3.35
2022-09-25T17:39:13.634Z,2.95
2022-09-25T17:41:40.780Z,2.45
2022-09-25T17:44:11.318Z,1.90
2022-09-25T17:46:38.937Z,2.05
2022-09-25T17:49:06.187Z,2.40
2022-09-25T17:51:33.149Z,5.45
2022-09-25T17:54:02.290Z,6.63
2022-09-25T17:56:34.221Z,4.10
2022-09-25T17:59:02.392Z,3.53
2022-09-25T18:01:35.401Z,5.68
2022-09-25T18:04:25.501Z,7.20
2022-09-25T18:06:52.817Z,7.10
2022-09-25T18:09:20.060Z,8.20
2022-09-25T18:11:47.006Z,6.53
2022-09-25T18:14:15.012Z,4.78
2022-09-25T18:16:43.654Z,4.32
2022-09-25T18:19:37.395Z,6.90
2022-09-25T18:22:25.571Z,5.32
2022-09-25T18:24:57.199Z,4.25
2022-09-25T18:27:29.843Z,4.47
2022-09-25T18:29:56.750Z,4.93
2022-09-25T18:32:24.357Z,4.95
2022-09-25T18:34:51.548Z,5.57
2022-09-25T18:37:18.717Z,6.00
2022-09-25T18:39:48.050Z,6.63
2022-09-25T18:42:14.919Z,5.85
2022-09-25T18:44:43.178Z,7.68
2022-09-25T18:47:10.940Z,7.00
2022-09-25T18:49:38.015Z,6.15
2022-09-25T18:52:05.511Z,6.88
2022-09-25T18:54:32.392Z,4.85
2022-09-25T18:56:59.494Z,4.78
2022-09-25T18:59:26.675Z,2.13
2022-09-25T19:01:55.677Z,3.03
2022-09-25T19:04:23.141Z,63.08
2022-09-25T19:06:49.983Z,7.55
2022-09-25T19:09:17.691Z,9.82
2022-09-25T19:11:45.323Z,1.90
2022-09-25T19:14:12.982Z,1.75
2022-09-25T19:16:39.831Z,1.58
2022-09-25T19:19:07.608Z,5.50
2022-09-25T19:21:35.284Z,3.85
2022-09-25T19:24:02.765Z,2.35
2022-09-25T19:26:33.095Z,2.33
2022-09-25T19:29:00.548Z,2.17
2022-09-25T19:31:28.077Z,2.28
2022-09-25T19:33:55.812Z,2.03
2022-09-25T19:36:25.375Z,2.25
2022-09-25T19:38:53.407Z,2.60
2022-09-25T19:41:26.433Z,3.08
2022-09-25T19:46:20.708Z,4.00
2022-09-25T19:48:48.666Z,4.30
2022-09-25T19:51:17.694Z,10.73
2022-09-25T19:53:44.605Z,6.15
2022-09-25T19:56:11.934Z,4.13
2022-09-25T19:58:39.246Z,3.47
2022-09-25T20:01:10.325Z,6.88
2022-09-25T20:03:38.049Z,6.43
2022-09-25T20:06:05.413Z,4.75
2022-09-25T20:08:32.516Z,2.13
2022-09-25T20:10:59.481Z,2.60
2022-09-25T20:13:26.586Z,2.45
2022-09-25T20:15:55.060Z,2.15
2022-09-25T20:18:23.138Z,1.80
2022-09-25T20:20:50.031Z,1.90
2022-09-25T20:23:16.949Z,1.55
2022-09-25T20:25:44.449Z,2.17
2022-09-25T20:28:12.896Z,22.52
2022-09-25T20:30:39.970Z,5.30
2022-09-25T20:33:06.900Z,4.25
2022-09-25T20:35:34.014Z,3.33
2022-09-25T20:38:00.960Z,2.63
2022-09-25T20:40:27.923Z,2.08
2022-09-25T20:42:54.987Z,1.83
2022-09-25T20:45:21.807Z,2.13
2022-09-25T20:47:48.702Z,2.10
2022-09-25T20:50:15.951Z,2.35
2022-09-25T20:52:44.286Z,3.15
2022-09-25T20:55:12.750Z,3.33
2022-09-25T20:57:39.640Z,3.25
2022-09-25T21:00:07.038Z,3.00
2022-09-25T21:02:33.934Z,3.60
2022-09-25T21:05:00.818Z,3.10
2022-09-25T21:07:27.733Z,3.60
2022-09-25T21:09:54.564Z,3.30
2022-09-25T21:12:22.661Z,3.88
2022-09-25T21:14:50.612Z,3.30
2022-09-25T21:17:18.267Z,3.40
2022-09-25T21:19:45.421Z,3.55
2022-09-25T21:22:12.279Z,3.17
2022-09-25T21:24:39.842Z,3.45
2022-09-25T21:27:06.866Z,2.97
2022-09-25T21:29:34.256Z,3.13
2022-09-25T21:32:01.608Z,4.13
2022-09-25T21:34:28.439Z,2.97
2022-09-25T21:36:55.252Z,3.50
2022-09-25T21:39:22.072Z,3.35
2022-09-25T21:41:49.383Z,3.03
2022-09-25T21:44:20.347Z,3.28
2022-09-25T21:46:47.483Z,4.45
2022-09-25T21:49:17.507Z,3.35
2022-09-25T21:51:45.476Z,3.10
2022-09-25T21:54:13.357Z,3.42
2022-09-25T21:56:41.384Z,4.07
2022-09-25T21:59:09.520Z,3.53
2022-09-25T22:01:38.778Z,3.40
2022-09-25T22:04:06.830Z,4.07
2022-09-25T22:06:37.110Z,3.67
2022-09-25T22:09:19.340Z,3.60
2022-09-25T22:11:47.426Z,3.35
2022-09-25T22:14:16.713Z,4.10
2022-09-25T22:16:46.328Z,4.05
2022-09-25T22:19:17.115Z,3.67
2022-09-25T22:21:46.075Z,4.03
2022-09-25T22:24:14.054Z,3.25
2022-09-25T22:26:43.596Z,3.78
2022-09-25T22:29:11.088Z,3.40
2022-09-25T22:31:38.630Z,3.33
2022-09-25T22:34:08.138Z,3.67
2022-09-25T22:36:36.447Z,3.80
2022-09-25T22:39:05.203Z,3.90
2022-09-25T22:41:32.565Z,3.92
2022-09-25T22:44:00.954Z,3.25
2022-09-25T22:46:28.494Z,4.30
2022-09-25T22:48:55.924Z,3.45
2022-09-25T22:51:24.812Z,4.15
2022-09-25T22:53:53.073Z,3.63
2022-09-25T22:56:32.230Z,3.08
2022-09-25T22:59:01.379Z,3.47
2022-09-25T23:01:34.917Z,3.65
2022-09-25T23:04:03.570Z,3.90
2022-09-25T23:06:32.134Z,3.60
2022-09-25T23:09:01.874Z,3.60
2022-09-25T23:11:30.234Z,3.78
2022-09-25T23:14:01.331Z,3.63
2022-09-25T23:16:28.716Z,3.47
2022-09-25T23:18:59.176Z,4.63
2022-09-25T23:21:27.585Z,3.60
2022-09-25T23:23:59.199Z,3.53
2022-09-25T23:26:26.390Z,3.58
2022-09-25T23:28:53.744Z,3.95
2022-09-25T23:31:21.239Z,3.50
2022-09-25T23:33:48.150Z,4.43
2022-09-25T23:36:17.755Z,4.05
2022-09-25T23:38:45.262Z,3.78
2022-09-25T23:41:23.862Z,3.92
2022-09-25T23:43:52.525Z,4.50
2022-09-25T23:46:21.207Z,4.50
2022-09-25T23:48:48.955Z,4.13
2022-09-25T23:51:18.811Z,3.95
2022-09-25T23:53:45.726Z,3.88
2022-09-25T23:56:17.879Z,3.58
2022-09-25T23:58:44.868Z,3.10
